Time;durP1;ratioP1;P1;durP2;ratioP2;P2;SDS_P1;SDS_P2;PMS_P1;PMS_P2;Temp;Humidity;BMP_temperature;BMP_pressure;BME280_temperature;BME280_humidity;BME280_pressure;Samples;Min_cycle;Max_cycle;Signal;HPM_P1;HPM_P2
2021/11/30 00:02:02;;;;;;;19.50;10.57;;;;;;;2.12;100.00;99909.19;5188733;28;20034;-79
2021/11/30 00:04:33;;;;;;;20.52;11.07;;;;;;;2.14;100.00;99898.00;5192065;28;20530;-79
2021/11/30 00:07:03;;;;;;;17.52;10.07;;;;;;;2.08;100.00;99892.94;5180361;28;20332;-79
2021/11/30 00:12:20;;;;;;;19.42;9.68;;;;;;;2.03;100.00;99892.13;5192332;28;20045;-79
2021/11/30 00:14:53;;;;;;;18.25;10.05;;;;;;;2.01;100.00;99893.03;5182728;28;20089;-79
2021/11/30 00:17:24;;;;;;;21.45;10.65;;;;;;;2.01;100.00;99885.31;5186580;28;20022;-79
2021/11/30 00:19:54;;;;;;;20.80;10.48;;;;;;;1.97;100.00;99875.94;5189283;28;20355;-79
2021/11/30 00:22:25;;;;;;;20.27;10.77;;;;;;;2.06;100.00;99878.38;5188814;28;20060;-79
2021/11/30 00:24:55;;;;;;;22.15;10.45;;;;;;;2.06;100.00;99862.91;5189257;28;20029;-80
2021/11/30 00:27:26;;;;;;;20.55;10.07;;;;;;;2.15;100.00;99870.53;5190935;28;20029;-79
2021/11/30 00:29:56;;;;;;;20.25;11.05;;;;;;;2.15;100.00;99873.13;5189051;28;20026;-79
2021/11/30 00:32:26;;;;;;;18.92;10.05;;;;;;;2.24;100.00;99870.41;5190304;28;20538;-79
2021/11/30 00:34:57;;;;;;;19.88;11.05;;;;;;;2.26;100.00;99871.22;5189390;28;20034;-79
2021/11/30 00:37:27;;;;;;;20.10;10.32;;;;;;;2.28;100.00;99862.59;5190939;28;20029;-79
2021/11/30 00:39:57;;;;;;;18.77;9.70;;;;;;;2.40;100.00;99852.13;5188435;28;20219;-79
2021/11/30 00:42:28;;;;;;;20.25;9.95;;;;;;;2.49;100.00;99848.56;5191114;28;20026;-79
2021/11/30 00:45:01;;;;;;;19.90;10.85;;;;;;;2.50;100.00;99847.69;5186959;28;20021;-79
2021/11/30 00:47:33;;;;;;;18.10;10.10;;;;;;;2.48;100.00;99845.13;5186284;28;20515;-79
2021/11/30 00:50:06;;;;;;;19.55;10.30;;;;;;;2.59;100.00;99840.66;5187163;28;20419;-80
2021/11/30 00:52:37;;;;;;;19.88;9.80;;;;;;;2.75;100.00;99836.09;5184117;28;20024;-79
2021/11/30 00:55:08;;;;;;;18.65;9.93;;;;;;;2.81;100.00;99833.41;5191559;28;20104;-79
2021/11/30 00:57:42;;;;;;;17.08;9.40;;;;;;;2.82;100.00;99830.00;5187944;28;20025;-79
2021/11/30 01:00:17;;;;;;;18.23;10.00;;;;;;;2.91;100.00;99827.25;5189766;28;20550;-80
2021/11/30 01:02:48;;;;;;;19.48;9.80;;;;;;;2.90;100.00;99831.56;5188773;28;20369;-79
2021/11/30 01:05:18;;;;;;;18.00;9.85;;;;;;;2.93;100.00;99818.59;5189849;28;20099;-80
2021/11/30 01:07:49;;;;;;;17.90;9.32;;;;;;;2.94;100.00;99814.28;5189452;28;20033;-79
2021/11/30 01:10:19;;;;;;;16.67;9.30;;;;;;;2.85;100.00;99814.44;5189878;28;20314;-80
2021/11/30 01:12:50;;;;;;;19.23;9.65;;;;;;;2.87;100.00;99815.28;5188352;28;20022;-79
2021/11/30 01:15:22;;;;;;;17.48;8.98;;;;;;;2.97;100.00;99804.75;5186314;28;20038;-79
2021/11/30 01:17:52;;;;;;;18.23;8.88;;;;;;;3.08;100.00;99799.41;5184278;28;20033;-79
2021/11/30 01:20:23;;;;;;;17.83;9.07;;;;;;;3.02;100.00;99794.38;5189695;28;20026;-79
2021/11/30 01:22:53;;;;;;;17.90;9.48;;;;;;;3.07;100.00;99797.72;5189478;28;20025;-79
2021/11/30 01:25:24;;;;;;;17.65;9.55;;;;;;;3.06;100.00;99796.84;5190475;28;20030;-79
2021/11/30 01:27:55;;;;;;;18.27;9.68;;;;;;;3.13;100.00;99787.25;5188918;28;20041;-79
2021/11/30 01:30:25;;;;;;;16.48;9.20;;;;;;;3.12;100.00;99786.44;5193990;28;20025;-79
2021/11/30 01:32:55;;;;;;;20.30;10.15;;;;;;;3.21;100.00;99785.41;5190868;28;20041;-78
2021/11/30 01:35:26;;;;;;;18.05;9.70;;;;;;;3.33;100.00;99785.19;5193181;28;20546;-77
2021/11/30 01:37:56;;;;;;;20.77;10.07;;;;;;;3.31;100.00;99774.00;5191953;28;20682;-77
2021/11/30 01:40:28;;;;;;;16.90;9.63;;;;;;;3.32;100.00;99773.13;5194624;28;20029;-78
2021/11/30 01:43:01;;;;;;;15.38;8.95;;;;;;;3.33;100.00;99767.94;5192854;28;20021;-78
2021/11/30 01:51:00;;;;;;;17.60;9.15;;;;;;;3.34;100.00;99743.81;5192039;28;20029;-78
2021/11/30 01:53:30;;;;;;;19.98;9.70;;;;;;;3.30;100.00;99749.06;5194342;28;20045;-78
2021/11/30 01:56:01;;;;;;;19.48;10.38;;;;;;;3.39;100.00;99743.75;5191134;28;20770;-78
2021/11/30 01:58:31;;;;;;;18.13;9.32;;;;;;;3.39;100.00;99738.56;5185732;28;20466;-78
2021/11/30 02:01:02;;;;;;;20.15;9.88;;;;;;;3.36;100.00;99730.91;5179281;28;20464;-79
2021/11/30 02:03:34;;;;;;;17.88;9.65;;;;;;;3.41;100.00;99726.47;5188426;28;20099;-78
2021/11/30 02:06:05;;;;;;;17.92;9.27;;;;;;;3.33;100.00;99730.97;5194732;28;20203;-78
2021/11/30 02:08:35;;;;;;;20.95;9.82;;;;;;;3.41;100.00;99731.66;5191809;28;20064;-78
2021/11/30 02:11:06;;;;;;;20.00;9.70;;;;;;;3.29;100.00;99730.16;5191373;28;20021;-78
2021/11/30 02:13:36;;;;;;;17.17;9.48;;;;;;;3.34;100.00;99722.34;5194073;28;20471;-78
2021/11/30 02:16:07;;;;;;;20.25;10.00;;;;;;;3.31;100.00;99709.47;5187642;28;20112;-78
2021/11/30 02:18:42;;;;;;;18.20;8.75;;;;;;;3.32;100.00;99698.25;5182431;28;20186;-77
2021/11/30 02:21:14;;;;;;;19.90;9.93;;;;;;;3.34;100.00;99689.59;5193097;28;20034;-79
2021/11/30 02:23:57;;;;;;;14.85;8.63;;;;;;;3.39;100.00;99684.34;5191861;28;20034;-79
2021/11/30 02:26:30;;;;;;;18.73;9.10;;;;;;;3.34;100.00;99676.69;5195056;28;20025;-78
2021/11/30 02:29:03;;;;;;;19.25;9.20;;;;;;;3.36;100.00;99690.41;5187889;28;20607;-78
2021/11/30 02:31:44;;;;;;;18.08;9.23;;;;;;;3.40;100.00;99684.31;5189406;28;20025;-78
2021/11/30 02:34:17;;;;;;;14.77;7.72;;;;;;;3.38;100.00;99680.06;5189023;28;20030;-79
2021/11/30 02:36:54;;;;;;;14.65;8.13;;;;;;;3.27;100.00;99676.84;5192376;28;20043;-78
2021/11/30 02:39:25;;;;;;;13.05;7.80;;;;;;;3.26;100.00;99670.00;5192381;28;20472;-78
2021/11/30 02:41:56;;;;;;;15.98;7.20;;;;;;;3.26;100.00;99667.41;5190428;28;20034;-79
2021/11/30 02:44:27;;;;;;;15.48;8.32;;;;;;;3.32;100.00;99651.78;5193214;28;20512;-78
2021/11/30 02:47:04;;;;;;;16.25;8.85;;;;;;;3.40;100.00;99644.75;5183858;28;20033;-78
2021/11/30 02:49:38;;;;;;;18.45;9.18;;;;;;;3.34;100.00;99631.97;5182720;28;20156;-78
2021/11/30 02:52:14;;;;;;;16.65;8.55;;;;;;;3.36;100.00;99609.56;5193519;28;20036;-78
2021/11/30 02:54:48;;;;;;;18.35;8.93;;;;;;;3.41;100.00;99606.00;5191542;28;20340;-78
2021/11/30 02:57:18;;;;;;;15.68;8.32;;;;;;;3.34;100.00;99611.31;5192391;28;20029;-78
2021/11/30 02:59:51;;;;;;;16.17;8.32;;;;;;;3.37;100.00;99611.25;5189678;28;20608;-78
2021/11/30 03:02:27;;;;;;;16.17;8.80;;;;;;;3.38;100.00;99607.78;5190424;28;20022;-78
2021/11/30 03:05:00;;;;;;;15.82;9.07;;;;;;;3.36;100.00;99600.06;5190455;28;20042;-78
2021/11/30 03:07:37;;;;;;;18.17;8.35;;;;;;;3.40;100.00;99600.84;5192738;28;20034;-78
2021/11/30 03:10:14;;;;;;;14.27;8.43;;;;;;;3.39;100.00;99588.81;5186014;28;20187;-78
2021/11/30 03:12:48;;;;;;;19.58;10.07;;;;;;;3.44;100.00;99592.13;5191919;28;20028;-78
2021/11/30 03:15:22;;;;;;;18.27;9.20;;;;;;;3.45;100.00;99588.66;5190668;28;20120;-78
2021/11/30 03:17:55;;;;;;;17.63;9.33;;;;;;;3.41;100.00;99582.75;5185943;28;20484;-78
2021/11/30 03:20:25;;;;;;;15.82;9.30;;;;;;;3.51;100.00;99573.06;5192131;28;20033;-79
2021/11/30 03:22:55;;;;;;;17.92;10.25;;;;;;;3.56;100.00;99573.78;5190529;28;20091;-79
2021/11/30 03:25:26;;;;;;;21.40;10.23;;;;;;;3.49;100.00;99565.34;5193035;28;20063;-79
2021/11/30 03:27:56;;;;;;;19.83;10.18;;;;;;;3.71;100.00;99557.03;5190659;28;20033;-79
2021/11/30 03:30:27;;;;;;;18.58;9.85;;;;;;;3.56;100.00;99553.13;5189774;28;20112;-79
2021/11/30 03:35:46;;;;;;;18.10;9.68;;;;;;;3.46;100.00;99549.06;5188078;28;20543;-79
2021/11/30 03:38:16;;;;;;;16.52;9.23;;;;;;;3.50;100.00;99543.78;5191972;28;20053;-78
2021/11/30 03:40:47;;;;;;;17.30;9.38;;;;;;;3.36;100.00;99542.44;5185301;28;20479;-79
2021/11/30 03:43:17;;;;;;;16.88;9.73;;;;;;;3.35;100.00;99530.41;5186173;28;20116;-79
2021/11/30 03:45:48;;;;;;;17.55;10.07;;;;;;;3.40;100.00;99524.22;5189681;28;20034;-79
2021/11/30 03:48:18;;;;;;;17.05;9.77;;;;;;;3.39;100.00;99529.44;5181210;28;20668;-79
2021/11/30 03:50:49;;;;;;;18.60;9.70;;;;;;;3.35;100.00;99526.06;5188069;28;20022;-79
2021/11/30 03:53:19;;;;;;;16.08;8.77;;;;;;;3.37;100.00;99523.47;5189043;28;20054;-79
2021/11/30 03:55:50;;;;;;;17.15;9.43;;;;;;;3.34;100.00;99515.81;5188659;28;20033;-79
2021/11/30 03:58:20;;;;;;;17.90;10.15;;;;;;;3.36;100.00;99516.59;5186498;28;20498;-78
2021/11/30 04:00:51;;;;;;;16.17;9.02;;;;;;;3.31;100.00;99508.09;5185551;28;20285;-78
2021/11/30 04:03:23;;;;;;;16.10;8.52;;;;;;;3.33;100.00;99490.88;5190905;28;20029;-79
2021/11/30 04:05:53;;;;;;;14.98;9.13;;;;;;;3.48;100.00;99487.88;5191657;28;20029;-78
2021/11/30 04:08:23;;;;;;;16.30;9.50;;;;;;;3.30;100.00;99489.19;5190864;28;20396;-79
2021/11/30 04:10:54;;;;;;;17.75;9.25;;;;;;;3.31;100.00;99479.72;5190998;28;20040;-78
2021/11/30 04:13:24;;;;;;;17.63;9.32;;;;;;;3.43;100.00;99479.41;5190620;28;20145;-78
2021/11/30 04:15:55;;;;;;;17.52;9.15;;;;;;;3.37;100.00;99477.00;5188721;28;20024;-78
2021/11/30 04:18:25;;;;;;;16.23;9.00;;;;;;;3.29;100.00;99468.56;5179397;28;20036;-78
2021/11/30 04:20:56;;;;;;;14.82;8.07;;;;;;;3.29;100.00;99464.28;5191870;28;20033;-79
2021/11/30 04:23:27;;;;;;;16.35;8.57;;;;;;;3.23;100.00;99458.41;5189577;28;20117;-78
2021/11/30 04:25:58;;;;;;;15.32;8.48;;;;;;;3.27;100.00;99449.69;5184722;28;20021;-78
2021/11/30 04:28:28;;;;;;;14.18;8.40;;;;;;;3.21;100.00;99444.69;5186488;28;20089;-78
2021/11/30 04:30:59;;;;;;;14.23;7.93;;;;;;;3.28;100.00;99426.44;5190027;28;20498;-78
2021/11/30 04:33:29;;;;;;;13.40;8.00;;;;;;;3.15;100.00;99421.59;5192397;28;20090;-78
2021/11/30 04:36:00;;;;;;;13.90;8.18;;;;;;;3.23;100.00;99402.44;5189266;28;20393;-78
2021/11/30 04:38:30;;;;;;;11.80;7.57;;;;;;;3.26;100.00;99396.38;5192422;28;20045;-78
2021/11/30 04:41:01;;;;;;;13.65;7.78;;;;;;;3.20;100.00;99387.06;5189690;28;20113;-79
2021/11/30 04:43:35;;;;;;;10.20;6.40;;;;;;;3.28;100.00;99372.22;5192041;28;20483;-79
2021/11/30 04:46:23;;;;;;;10.50;6.70;;;;;;;3.37;100.00;99371.16;5181460;28;20025;-78
2021/11/30 04:49:05;;;;;;;12.50;6.28;;;;;;;3.31;100.00;99354.09;5187037;28;20030;-79
2021/11/30 04:51:35;;;;;;;11.27;5.97;;;;;;;3.36;100.00;99341.06;5184963;28;20211;-78
2021/11/30 04:54:06;;;;;;;9.70;5.50;;;;;;;3.41;100.00;99323.69;5192654;28;20395;-79
2021/11/30 04:56:36;;;;;;;5.80;3.85;;;;;;;3.38;100.00;99319.47;5184152;28;20033;-79
2021/11/30 04:59:06;;;;;;;6.53;3.60;;;;;;;3.26;100.00;99313.78;5182330;28;20057;-79
2021/11/30 05:01:37;;;;;;;5.32;3.05;;;;;;;3.36;100.00;99305.75;5189146;28;20401;-79
2021/11/30 05:04:07;;;;;;;5.47;3.20;;;;;;;3.37;100.00;99296.28;5194648;28;20101;-79
2021/11/30 05:06:38;;;;;;;4.40;2.90;;;;;;;3.32;100.00;99292.97;5191916;28;20059;-79
2021/11/30 05:09:08;;;;;;;9.13;3.25;;;;;;;3.43;100.00;99286.63;5196690;28;20025;-79
2021/11/30 05:11:39;;;;;;;6.18;3.20;;;;;;;3.25;100.00;99268.22;5194098;28;20049;-79
2021/11/30 05:14:09;;;;;;;7.03;3.00;;;;;;;3.13;100.00;99271.97;5196318;28;20036;-79
2021/11/30 05:16:40;;;;;;;5.10;2.40;;;;;;;3.20;100.00;99267.50;5187965;28;20416;-79
2021/11/30 05:19:10;;;;;;;3.88;1.90;;;;;;;3.18;100.00;99264.13;5188444;28;20036;-79
2021/11/30 05:21:41;;;;;;;3.85;1.77;;;;;;;3.10;100.00;99259.16;5188794;28;20200;-79
2021/11/30 05:24:11;;;;;;;3.53;1.67;;;;;;;3.10;100.00;99242.81;5193218;28;20029;-79
2021/11/30 05:26:42;;;;;;;3.30;1.70;;;;;;;3.11;100.00;99240.22;5193522;28;20033;-78
2021/11/30 05:29:12;;;;;;;4.55;1.90;;;;;;;3.15;100.00;99236.66;5195884;28;20052;-79
2021/11/30 05:31:42;;;;;;;3.30;1.98;;;;;;;3.02;100.00;99237.84;5193182;28;20065;-79
2021/11/30 05:34:13;;;;;;;3.45;2.00;;;;;;;2.96;100.00;99229.44;5195331;28;20036;-79
2021/11/30 05:36:43;;;;;;;5.38;2.25;;;;;;;2.97;100.00;99218.22;5192910;28;20025;-79
2021/11/30 05:39:14;;;;;;;3.20;1.90;;;;;;;2.90;100.00;99206.41;5193686;28;20044;-79
2021/11/30 05:41:44;;;;;;;4.18;1.75;;;;;;;2.89;100.00;99200.38;5183961;28;20539;-79
2021/11/30 05:44:15;;;;;;;4.45;1.73;;;;;;;2.84;100.00;99198.84;5187078;28;20033;-79
2021/11/30 05:46:48;;;;;;;3.83;1.90;;;;;;;2.81;100.00;99183.41;5187666;28;20386;-79
2021/11/30 05:49:19;;;;;;;2.25;1.42;;;;;;;2.96;100.00;99183.00;5190104;28;20053;-79
2021/11/30 05:51:50;;;;;;;2.40;1.27;;;;;;;2.91;100.00;99177.13;5184956;28;20096;-79
2021/11/30 05:54:21;;;;;;;3.15;1.38;;;;;;;2.87;100.00;99176.34;5186704;28;20422;-79
2021/11/30 05:56:51;;;;;;;2.58;1.52;;;;;;;2.86;100.00;99166.09;5186274;28;20412;-79
2021/11/30 05:59:22;;;;;;;3.75;1.80;;;;;;;2.94;100.00;99157.25;5192177;28;20036;-79
2021/11/30 06:01:54;;;;;;;5.13;1.90;;;;;;;2.97;100.00;99140.84;5193924;28;20317;-79
2021/11/30 06:04:25;;;;;;;3.95;1.77;;;;;;;2.96;100.00;99139.16;5191856;28;20075;-79
2021/11/30 06:06:55;;;;;;;3.60;1.90;;;;;;;3.05;100.00;99133.75;5193576;28;20037;-79
2021/11/30 06:09:26;;;;;;;4.20;2.00;;;;;;;3.02;100.00;99123.50;5184289;28;20459;-78
2021/11/30 06:11:56;;;;;;;3.55;1.88;;;;;;;3.12;100.00;99127.50;5183600;28;20018;-79
2021/11/30 06:14:27;;;;;;;2.85;1.80;;;;;;;3.17;100.00;99125.66;5186851;28;20029;-79
2021/11/30 06:16:57;;;;;;;2.90;1.88;;;;;;;3.04;100.00;99121.72;5185914;28;20430;-78
2021/11/30 06:19:28;;;;;;;3.60;2.00;;;;;;;3.13;100.00;99101.66;5184175;28;20030;-79
2021/11/30 06:21:58;;;;;;;4.25;2.13;;;;;;;3.21;100.00;99104.84;5188035;28;20031;-79
2021/11/30 06:24:29;;;;;;;5.32;2.30;;;;;;;3.08;100.00;99090.66;5188453;28;20025;-78
2021/11/30 06:26:59;;;;;;;4.07;2.30;;;;;;;3.07;100.00;99088.94;5187825;28;20438;-79
2021/11/30 06:29:29;;;;;;;4.22;2.10;;;;;;;3.10;100.00;99093.16;5192746;28;20087;-78
2021/11/30 06:32:00;;;;;;;6.63;2.53;;;;;;;3.17;100.00;99086.94;5188485;28;20030;-79
2021/11/30 06:34:30;;;;;;;3.95;2.17;;;;;;;3.22;100.00;99087.66;5185352;28;20035;-78
2021/11/30 06:37:01;;;;;;;2.95;1.80;;;;;;;3.26;100.00;99081.50;5182627;28;20168;-79
2021/11/30 06:39:32;;;;;;;2.95;1.50;;;;;;;3.23;100.00;99079.84;5190914;28;20388;-79
2021/11/30 06:42:03;;;;;;;2.95;1.75;;;;;;;3.23;100.00;99094.50;5189256;28;20077;-79
2021/11/30 06:44:35;;;;;;;2.88;1.70;;;;;;;3.23;100.00;99081.59;5193615;28;20490;-78
2021/11/30 06:47:06;;;;;;;4.75;1.85;;;;;;;3.29;100.00;99071.06;5182617;28;20030;-78
2021/11/30 06:49:36;;;;;;;2.58;1.70;;;;;;;3.22;100.00;99072.97;5177684;28;20025;-78
2021/11/30 06:52:06;;;;;;;1.98;1.48;;;;;;;3.26;100.00;99077.19;5184033;28;20029;-79
2021/11/30 06:54:43;;;;;;;2.33;1.13;;;;;;;3.29;100.00;99061.59;5182210;28;20483;-78
2021/11/30 06:57:14;;;;;;;2.60;1.13;;;;;;;3.31;100.00;99064.13;5186808;28;20555;-78
2021/11/30 06:59:45;;;;;;;1.75;1.20;;;;;;;3.40;100.00;99061.25;5192418;28;20037;-78
2021/11/30 07:02:15;;;;;;;2.53;1.48;;;;;;;3.40;100.00;99063.84;5190712;28;20033;-78
2021/11/30 07:04:49;;;;;;;2.33;1.20;;;;;;;3.52;100.00;99064.31;5191817;28;20045;-78
2021/11/30 07:07:22;;;;;;;1.88;1.30;;;;;;;3.54;100.00;99052.19;5187362;28;20037;-78
2021/11/30 07:10:12;;;;;;;2.40;1.10;;;;;;;3.62;100.00;99055.38;5189433;28;20093;-78
2021/11/30 07:15:13;;;;;;;3.17;1.00;;;;;;;3.71;100.00;99061.09;5192891;28;20087;-78
2021/11/30 07:17:43;;;;;;;2.83;0.80;;;;;;;3.69;100.00;99047.38;5180497;28;20037;-78
2021/11/30 07:20:13;;;;;;;1.77;1.02;;;;;;;3.75;100.00;99052.34;5189150;28;20025;-78
2021/11/30 07:22:44;;;;;;;2.10;1.10;;;;;;;3.83;100.00;99058.13;5190484;28;20104;-78
2021/11/30 07:25:14;;;;;;;1.60;0.95;;;;;;;3.83;100.00;99059.84;5191843;28;20040;-78
2021/11/30 07:27:45;;;;;;;3.38;1.33;;;;;;;3.82;100.00;99048.66;5189690;28;20056;-78
2021/11/30 07:30:15;;;;;;;2.50;1.30;;;;;;;3.82;100.00;99058.97;5186570;28;20036;-78
2021/11/30 07:32:45;;;;;;;2.85;1.10;;;;;;;3.95;100.00;99052.53;5183132;28;20041;-78
2021/11/30 07:35:20;;;;;;;2.63;1.08;;;;;;;3.94;100.00;99050.84;5186639;28;20096;-78
2021/11/30 07:37:50;;;;;;;1.08;0.90;;;;;;;3.93;100.00;99046.56;5184341;28;20025;-78
2021/11/30 07:40:21;;;;;;;2.45;1.08;;;;;;;4.02;100.00;99048.84;5182831;28;20432;-78
2021/11/30 07:42:52;;;;;;;1.08;0.82;;;;;;;4.07;100.00;99046.94;5185336;28;20108;-78
2021/11/30 07:45:22;;;;;;;1.90;1.00;;;;;;;4.05;100.00;99050.47;5187987;28;20112;-78
2021/11/30 07:47:53;;;;;;;1.35;0.90;;;;;;;4.05;100.00;99051.31;5178774;28;20079;-78
2021/11/30 07:50:23;;;;;;;2.20;1.25;;;;;;;4.14;100.00;99035.50;5187572;28;20726;-78
2021/11/30 07:52:54;;;;;;;1.50;0.93;;;;;;;4.14;100.00;99030.31;5189832;28;20441;-78
2021/11/30 07:55:24;;;;;;;1.88;1.00;;;;;;;4.13;100.00;99038.97;5190053;28;20112;-78
2021/11/30 07:57:54;;;;;;;0.85;0.80;;;;;;;4.24;100.00;99030.84;5190356;28;20038;-78
2021/11/30 08:00:25;;;;;;;1.98;1.15;;;;;;;4.24;100.00;99021.38;5184882;28;20116;-78
2021/11/30 08:02:56;;;;;;;1.33;1.00;;;;;;;4.28;100.00;99017.75;5178185;28;20034;-78
2021/11/30 08:05:26;;;;;;;1.45;0.90;;;;;;;4.26;100.00;99019.56;5188226;28;20021;-78
2021/11/30 08:07:57;;;;;;;3.45;0.93;;;;;;;4.37;100.00;99021.75;5191349;28;20029;-78
2021/11/30 08:10:28;;;;;;;1.55;0.90;;;;;;;4.47;100.00;99017.97;5189482;28;20113;-78
2021/11/30 08:12:59;;;;;;;1.42;0.80;;;;;;;4.45;100.00;99010.25;5190898;28;20021;-79
2021/11/30 08:15:29;;;;;;;1.92;0.80;;;;;;;4.45;100.00;98999.06;5189172;28;20034;-78
2021/11/30 08:18:00;;;;;;;1.02;0.77;;;;;;;4.46;100.00;98990.41;5179937;28;20042;-78
2021/11/30 08:20:32;;;;;;;1.25;0.80;;;;;;;4.53;100.00;99007.38;5183902;28;20033;-80
2021/11/30 08:23:04;;;;;;;1.20;0.90;;;;;;;4.53;100.00;99008.25;5191790;28;20464;-80
2021/11/30 08:25:35;;;;;;;0.70;0.55;;;;;;;4.56;100.00;99002.94;5189792;28;20045;-79
2021/11/30 08:28:06;;;;;;;1.95;0.98;;;;;;;4.56;100.00;98994.34;5178783;28;20053;-79
2021/11/30 08:30:37;;;;;;;0.82;0.70;;;;;;;4.62;100.00;98992.38;5190409;28;20025;-80
2021/11/30 08:33:07;;;;;;;0.70;0.70;;;;;;;4.67;100.00;98985.28;5188750;28;20557;-78
2021/11/30 08:35:38;;;;;;;0.82;0.63;;;;;;;4.68;100.00;98992.16;5191615;28;20029;-78
2021/11/30 08:38:08;;;;;;;1.27;0.75;;;;;;;4.72;100.00;98983.38;5192746;28;20029;-79
2021/11/30 08:40:39;;;;;;;1.73;0.80;;;;;;;4.73;100.00;98990.25;5193757;28;20056;-78
2021/11/30 08:43:09;;;;;;;0.68;0.68;;;;;;;4.76;100.00;98982.34;5195467;28;20029;-77
2021/11/30 08:45:40;;;;;;;1.23;0.80;;;;;;;4.77;100.00;98991.81;5194465;28;20116;-78
2021/11/30 08:48:10;;;;;;;1.88;0.90;;;;;;;4.77;100.00;98978.88;5184580;28;20037;-77
2021/11/30 08:50:41;;;;;;;1.17;0.80;;;;;;;4.84;100.00;98972.53;5189642;28;20061;-76
2021/11/30 08:53:12;;;;;;;1.95;0.88;;;;;;;4.85;100.00;98978.56;5192299;28;20052;-77
2021/11/30 08:55:42;;;;;;;1.90;1.20;;;;;;;4.89;100.00;98982.72;5195276;28;20044;-78
2021/11/30 08:58:13;;;;;;;1.92;1.10;;;;;;;4.86;100.00;98975.94;5194605;28;20025;-79
2021/11/30 09:00:43;;;;;;;1.35;1.00;;;;;;;4.91;100.00;98962.81;5195264;28;20032;-78
2021/11/30 09:03:14;;;;;;;1.17;0.90;;;;;;;4.88;100.00;98957.75;5193242;28;20488;-79
2021/11/30 09:05:44;;;;;;;1.20;1.00;;;;;;;4.89;100.00;98946.50;5196058;28;20048;-78
2021/11/30 09:08:15;;;;;;;2.22;1.20;;;;;;;4.94;100.00;98960.94;5194981;28;20040;-79
2021/11/30 09:10:47;;;;;;;4.10;1.40;;;;;;;5.02;100.00;98964.09;5195646;28;20148;-79
2021/11/30 09:13:17;;;;;;;2.40;1.55;;;;;;;5.11;100.00;98971.47;5195112;28;20395;-79
2021/11/30 09:15:48;;;;;;;2.47;1.65;;;;;;;5.23;100.00;98971.00;5193567;28;20030;-80
2021/11/30 09:18:18;;;;;;;4.18;1.80;;;;;;;5.23;100.00;98965.84;5189641;28;20072;-77
2021/11/30 09:20:49;;;;;;;2.10;1.50;;;;;;;5.33;100.00;98959.34;5192673;28;20025;-79
2021/11/30 09:23:20;;;;;;;2.63;1.33;;;;;;;5.47;100.00;98964.81;5196032;28;20236;-79
2021/11/30 09:25:53;;;;;;;2.50;1.50;;;;;;;5.58;100.00;98939.34;5194437;28;20189;-79
2021/11/30 09:28:25;;;;;;;3.85;1.50;;;;;;;5.59;100.00;98953.97;5195197;28;20045;-80
2021/11/30 09:30:55;;;;;;;2.28;1.42;;;;;;;5.65;100.00;98953.72;5195851;28;20029;-78
2021/11/30 09:33:26;;;;;;;2.28;1.52;;;;;;;5.65;100.00;98966.66;5194885;28;20037;-80
2021/11/30 09:35:56;;;;;;;2.60;1.60;;;;;;;5.64;100.00;98963.25;5196015;28;20029;-80
2021/11/30 09:38:27;;;;;;;3.22;2.10;;;;;;;5.64;100.00;98968.44;5194473;28;20530;-79
2021/11/30 09:40:58;;;;;;;3.03;1.80;;;;;;;5.69;100.00;98970.81;5196664;28;20534;-76
2021/11/30 09:43:32;;;;;;;2.28;1.75;;;;;;;5.71;100.00;98975.03;5187844;28;20030;-80
2021/11/30 09:46:03;;;;;;;6.00;2.17;;;;;;;5.71;100.00;98969.84;5189482;28;20026;-80
2021/11/30 09:48:35;;;;;;;4.47;2.20;;;;;;;5.71;100.00;98974.19;5185010;28;20029;-79
2021/11/30 09:51:05;;;;;;;3.05;2.25;;;;;;;5.76;100.00;98973.06;5182349;28;20048;-79
2021/11/30 09:53:36;;;;;;;4.97;2.47;;;;;;;5.75;100.00;98971.38;5189703;28;20026;-77
2021/11/30 09:56:07;;;;;;;2.60;1.63;;;;;;;5.78;100.00;98975.63;5196831;28;20537;-79
2021/11/30 09:58:37;;;;;;;4.43;2.55;;;;;;;5.78;100.00;98970.44;5192779;28;20398;-79
2021/11/30 10:01:12;;;;;;;7.00;3.83;;;;;;;5.83;100.00;98977.16;5195940;28;20034;-77
2021/11/30 10:03:43;;;;;;;2.47;1.33;;;;;;;5.88;100.00;98976.97;5193963;28;20025;-79
2021/11/30 10:06:14;;;;;;;4.75;2.60;;;;;;;5.89;100.00;98973.47;5195984;28;20430;-79
2021/11/30 10:08:46;;;;;;;3.85;2.35;;;;;;;5.91;100.00;98959.50;5193682;28;20057;-79
2021/11/30 10:11:35;;;;;;;3.05;2.33;;;;;;;5.96;100.00;98959.31;5195482;28;20021;-79
2021/11/30 10:14:10;;;;;;;6.53;3.38;;;;;;;5.98;100.00;98957.50;5196539;28;20079;-79
2021/11/30 10:17:04;;;;;;;3.75;2.50;;;;;;;6.09;100.00;98945.75;5184388;28;20033;-79
2021/11/30 10:19:34;;;;;;;3.92;2.80;;;;;;;6.13;100.00;98957.69;5182621;28;20030;-76
2021/11/30 10:22:05;;;;;;;3.97;2.83;;;;;;;6.07;100.00;98949.34;5185678;28;20076;-80
2021/11/30 10:24:36;;;;;;;4.55;3.05;;;;;;;6.16;100.00;98946.31;5186509;28;20044;-77
2021/11/30 10:27:06;;;;;;;3.50;2.60;;;;;;;6.17;100.00;98950.59;5188328;28;20084;-79
2021/11/30 10:29:43;;;;;;;4.68;2.90;;;;;;;6.19;100.00;98930.63;5192184;28;20506;-81
2021/11/30 10:32:14;;;;;;;3.15;2.35;;;;;;;6.27;100.00;98938.91;5190669;28;20104;-79
2021/11/30 10:34:59;;;;;;;3.95;2.33;;;;;;;6.30;100.00;98941.38;5193889;28;20028;-79
2021/11/30 10:37:30;;;;;;;5.45;2.05;;;;;;;6.34;100.00;98940.31;5176354;28;20029;-78
2021/11/30 10:40:12;;;;;;;3.83;2.05;;;;;;;6.49;100.00;98939.63;5189698;28;20029;-78
2021/11/30 10:42:45;;;;;;;4.55;2.10;;;;;;;6.47;100.00;98937.13;5197850;28;20138;-80
2021/11/30 10:45:24;;;;;;;5.85;2.30;;;;;;;6.59;100.00;98936.53;5193194;28;20033;-77
2021/11/30 10:48:11;;;;;;;3.22;1.80;;;;;;;6.58;100.00;98934.03;5185423;28;20028;-79
2021/11/30 10:50:51;;;;;;;4.80;2.33;;;;;;;6.60;100.00;98933.03;5189689;28;20462;-80
2021/11/30 10:53:28;;;;;;;5.10;2.17;;;;;;;6.58;100.00;98934.03;5186353;28;20225;-81
2021/11/30 10:56:03;;;;;;;2.33;1.30;;;;;;;6.58;100.00;98924.47;5188024;28;20029;-78
2021/11/30 10:58:42;;;;;;;2.72;1.17;;;;;;;6.59;100.00;98933.94;5187717;28;20021;-82
2021/11/30 11:01:19;;;;;;;3.17;1.35;;;;;;;6.67;100.00;98928.41;5189727;28;20073;-77
2021/11/30 11:04:05;;;;;;;2.28;1.35;;;;;;;6.70;100.00;98938.66;5186847;28;20026;-80
2021/11/30 11:06:36;;;;;;;12.27;4.07;;;;;;;6.75;100.00;98947.09;5189107;28;20423;-77
2021/11/30 11:09:11;;;;;;;6.45;2.75;;;;;;;6.80;100.00;98930.34;5182549;28;20030;-76
2021/11/30 11:11:44;;;;;;;6.18;3.13;;;;;;;6.87;100.00;98930.91;5189822;28;20022;-79
2021/11/30 11:14:24;;;;;;;4.43;1.38;;;;;;;6.93;100.00;98925.47;5180049;28;20030;-78
2021/11/30 11:17:02;;;;;;;5.97;1.27;;;;;;;6.94;100.00;98942.72;5179709;28;20031;-79
2021/11/30 11:19:43;;;;;;;6.35;1.65;;;;;;;6.94;100.00;98927.97;5182793;28;20026;-79
2021/11/30 11:22:20;;;;;;;4.20;1.00;;;;;;;6.99;100.00;98927.75;5179978;28;20030;-79
2021/11/30 11:24:54;;;;;;;6.43;1.77;;;;;;;7.03;100.00;98929.28;5170233;28;20484;-80
2021/11/30 11:27:33;;;;;;;5.13;1.40;;;;;;;7.09;100.00;98927.25;5189347;28;20096;-79
2021/11/30 11:30:07;;;;;;;9.45;1.10;;;;;;;7.12;100.00;98928.84;5188815;28;20450;-76
2021/11/30 11:32:37;;;;;;;7.25;1.00;;;;;;;7.20;100.00;98929.31;5187518;28;20045;-77
2021/11/30 11:35:10;;;;;;;6.38;1.13;;;;;;;7.33;100.00;98926.06;5188179;28;20107;-77
2021/11/30 11:37:41;;;;;;;10.85;1.42;;;;;;;7.35;100.00;98911.25;5185424;28;20064;-81
2021/11/30 11:40:13;;;;;;;7.90;1.17;;;;;;;7.40;100.00;98915.31;5186231;28;20527;-76
2021/11/30 11:42:44;;;;;;;7.20;1.10;;;;;;;7.35;100.00;98909.47;5185640;28;20534;-75
2021/11/30 11:45:14;;;;;;;6.40;1.20;;;;;;;7.40;100.00;98920.50;5183322;28;20073;-77
2021/11/30 11:47:45;;;;;;;6.57;1.33;;;;;;;7.45;100.00;98915.06;5183634;28;20018;-77
2021/11/30 11:50:16;;;;;;;4.25;1.05;;;;;;;7.44;100.00;98909.03;5180799;28;20030;-79
2021/11/30 11:52:47;;;;;;;4.93;0.98;;;;;;;7.54;100.00;98927.59;5193188;28;20361;-77
2021/11/30 11:55:22;;;;;;;3.58;0.93;;;;;;;7.53;100.00;98918.94;5185354;28;20033;-77
2021/11/30 11:58:03;;;;;;;11.45;1.27;;;;;;;7.59;100.00;98910.88;5177484;28;20382;-78
2021/11/30 12:00:34;;;;;;;6.88;0.95;;;;;;;7.67;100.00;98918.28;5179576;28;20025;-78
2021/11/30 12:03:07;;;;;;;6.22;1.17;;;;;;;7.64;100.00;98908.88;5181069;28;20029;-78
2021/11/30 12:05:51;;;;;;;10.10;1.50;;;;;;;7.72;100.00;98904.09;5180789;28;20030;-79